createdAt,value
2018-08-04T00:00:17.427Z,4.83
2018-08-04T00:02:19.644Z,4.03
2018-08-04T00:04:21.901Z,4.65
2018-08-04T00:06:24.141Z,4.85
2018-08-04T00:08:26.375Z,4.55
2018-08-04T00:10:28.621Z,3.75
2018-08-04T00:12:30.839Z,4.30
2018-08-04T00:14:33.077Z,4.45
2018-08-04T00:16:35.318Z,4.20
2018-08-04T00:18:37.538Z,4.17
2018-08-04T00:20:39.771Z,4.50
2018-08-04T00:22:42.022Z,3.27
2018-08-04T00:24:44.249Z,3.70
2018-08-04T00:26:46.467Z,3.95
2018-08-04T00:28:48.704Z,4.72
2018-08-04T00:30:50.922Z,4.70
2018-08-04T00:32:53.323Z,4.08
2018-08-04T00:34:55.573Z,4.03
2018-08-04T00:36:57.824Z,4.22
2018-08-04T00:39:00.065Z,4.10
2018-08-04T00:41:02.273Z,5.87
2018-08-04T00:43:04.540Z,3.33
2018-08-04T00:45:06.752Z,5.80
2018-08-04T00:47:08.971Z,3.80
2018-08-04T00:49:11.204Z,3.62
2018-08-04T00:51:13.468Z,4.40
2018-08-04T00:53:15.735Z,5.65
2018-08-04T00:55:17.931Z,5.40
2018-08-04T00:57:20.157Z,5.67
2018-08-04T00:59:22.386Z,3.83
2018-08-04T01:01:24.640Z,4.12
2018-08-04T01:03:26.874Z,4.70
2018-08-04T01:05:29.085Z,4.90
2018-08-04T01:07:31.336Z,3.95
2018-08-04T01:09:33.553Z,3.37
2018-08-04T01:11:35.816Z,3.12
2018-08-04T01:13:38.027Z,2.75
2018-08-04T01:15:40.244Z,3.10
2018-08-04T01:17:42.486Z,2.90
2018-08-04T01:19:44.726Z,3.58
2018-08-04T01:21:46.982Z,4.45
2018-08-04T01:23:49.190Z,3.87
2018-08-04T01:25:51.436Z,3.90
2018-08-04T01:27:53.648Z,3.50
2018-08-04T01:29:55.884Z,2.42
2018-08-04T01:31:58.098Z,2.72
2018-08-04T01:34:00.381Z,2.80
2018-08-04T01:36:02.554Z,2.83
2018-08-04T01:38:04.762Z,3.75
2018-08-04T01:40:07.024Z,2.45
2018-08-04T01:42:09.234Z,2.65
2018-08-04T01:44:11.486Z,3.12
2018-08-04T01:46:13.714Z,2.60
2018-08-04T01:48:15.926Z,3.62
2018-08-04T01:50:18.169Z,3.22
2018-08-04T01:52:20.430Z,3.87
2018-08-04T01:54:22.666Z,3.37
2018-08-04T01:56:24.882Z,3.05
2018-08-04T01:58:27.092Z,4.42
2018-08-04T02:00:29.358Z,2.72
2018-08-04T02:02:31.587Z,2.98
2018-08-04T02:04:33.796Z,3.35
2018-08-04T02:06:36.036Z,2.45
2018-08-04T02:08:38.282Z,2.77
2018-08-04T02:10:40.492Z,3.22
2018-08-04T02:12:42.720Z,2.70
2018-08-04T02:14:44.946Z,2.33
2018-08-04T02:16:47.157Z,2.10
2018-08-04T02:18:49.398Z,2.30
2018-08-04T02:20:51.645Z,2.62
2018-08-04T02:22:53.901Z,3.05
2018-08-04T02:24:56.141Z,4.33
2018-08-04T02:26:58.403Z,2.12
2018-08-04T02:29:00.629Z,3.15
2018-08-04T02:31:02.841Z,1.82
2018-08-04T02:33:05.084Z,3.08
2018-08-04T02:35:07.312Z,2.10
2018-08-04T02:37:09.525Z,3.27
2018-08-04T02:39:11.762Z,2.47
2018-08-04T02:41:13.973Z,2.10
2018-08-04T02:43:16.219Z,2.50
2018-08-04T02:45:18.441Z,2.47
2018-08-04T02:47:20.661Z,2.10
2018-08-04T02:49:22.897Z,2.58
2018-08-04T02:51:25.112Z,3.27
2018-08-04T02:53:27.359Z,2.33
2018-08-04T02:55:29.580Z,2.08
2018-08-04T02:57:31.826Z,3.58
2018-08-04T02:59:34.042Z,2.00
2018-08-04T03:01:36.293Z,2.00
2018-08-04T03:03:38.509Z,2.40
2018-08-04T03:05:40.752Z,2.45
2018-08-04T03:07:42.965Z,1.90
2018-08-04T03:09:45.175Z,2.00
2018-08-04T03:11:47.429Z,2.50
2018-08-04T03:13:49.648Z,2.15
2018-08-04T03:15:51.875Z,1.95
2018-08-04T03:17:54.114Z,2.72
2018-08-04T03:19:56.335Z,1.75
2018-08-04T03:21:58.583Z,5.53
2018-08-04T03:24:00.805Z,2.08
2018-08-04T03:26:03.023Z,3.50
2018-08-04T03:28:05.257Z,1.75
2018-08-04T03:30:07.516Z,2.08
2018-08-04T03:32:09.732Z,5.37
2018-08-04T03:34:11.955Z,1.80
2018-08-04T03:36:14.191Z,1.77
2018-08-04T03:38:16.417Z,2.52
2018-08-04T03:40:18.625Z,3.02
2018-08-04T03:42:20.860Z,2.47
2018-08-04T03:44:23.090Z,1.80
2018-08-04T03:46:25.344Z,2.55
2018-08-04T03:48:27.566Z,1.82
2018-08-04T03:50:29.780Z,2.00
2018-08-04T03:52:32.013Z,1.85
2018-08-04T03:54:34.238Z,3.58
2018-08-04T03:56:36.492Z,2.35
2018-08-04T03:58:38.711Z,1.98
2018-08-04T04:00:40.924Z,2.20
2018-08-04T04:02:43.160Z,2.45
2018-08-04T04:04:45.408Z,1.95
2018-08-04T04:06:47.649Z,1.70
2018-08-04T04:08:49.895Z,1.85
2018-08-04T04:10:52.124Z,2.17
2018-08-04T04:12:54.352Z,3.47
2018-08-04T04:14:56.562Z,2.25
2018-08-04T04:16:58.810Z,1.82
2018-08-04T04:19:01.028Z,3.42
2018-08-04T04:21:03.262Z,3.35
2018-08-04T04:23:05.512Z,2.92
2018-08-04T04:25:07.746Z,5.28
2018-08-04T04:27:09.969Z,4.83
2018-08-04T04:29:12.209Z,4.90
2018-08-04T04:31:14.478Z,4.47
2018-08-04T04:33:16.693Z,2.70
2018-08-04T04:35:18.928Z,3.37
2018-08-04T04:37:21.180Z,2.92
2018-08-04T04:39:23.389Z,3.50
2018-08-04T04:41:25.621Z,2.55
2018-08-04T04:43:27.840Z,2.85
2018-08-04T04:45:30.088Z,2.95
2018-08-04T04:47:32.320Z,4.42
2018-08-04T04:49:34.550Z,4.50
2018-08-04T04:51:36.766Z,4.62
2018-08-04T04:53:39.021Z,3.35
2018-08-04T04:55:41.240Z,5.22
2018-08-04T04:57:43.492Z,4.08
2018-08-04T04:59:45.726Z,3.58
2018-08-04T05:01:47.963Z,4.60
2018-08-04T05:03:50.209Z,4.30
2018-08-04T05:05:52.473Z,2.80
2018-08-04T05:07:54.695Z,3.87
2018-08-04T05:09:56.931Z,3.47
2018-08-04T05:11:59.165Z,3.55
2018-08-04T05:14:01.399Z,3.33
2018-08-04T05:16:03.650Z,2.20
2018-08-04T05:18:05.896Z,2.40
2018-08-04T05:20:08.118Z,2.85
2018-08-04T05:22:10.380Z,4.50
2018-08-04T05:24:12.586Z,3.25
2018-08-04T05:26:14.814Z,2.65
2018-08-04T05:28:17.048Z,2.92
2018-08-04T05:30:19.278Z,2.85
2018-08-04T05:32:21.536Z,2.50
2018-08-04T05:34:23.754Z,3.62
2018-08-04T05:36:25.962Z,3.12
2018-08-04T05:38:28.219Z,3.37
2018-08-04T05:40:30.420Z,2.92
2018-08-04T05:42:32.635Z,5.00
2018-08-04T05:44:34.899Z,4.90
2018-08-04T05:46:37.112Z,4.30
2018-08-04T05:48:39.337Z,6.42
2018-08-04T05:50:41.592Z,5.58
2018-08-04T05:52:43.812Z,7.90
2018-08-04T05:54:46.075Z,5.78
2018-08-04T05:56:48.318Z,5.05
2018-08-04T05:58:50.528Z,4.15
2018-08-04T06:00:52.750Z,3.25
2018-08-04T06:02:54.998Z,4.53
2018-08-04T06:04:57.242Z,34.95
2018-08-04T06:06:59.502Z,26.60
2018-08-04T06:09:01.734Z,41.85
2018-08-04T06:11:03.959Z,28.42
2018-08-04T06:13:06.206Z,22.82
2018-08-04T06:15:08.432Z,9.65
2018-08-04T06:17:10.653Z,6.12
2018-08-04T06:19:12.908Z,4.95
2018-08-04T06:21:15.152Z,5.25
2018-08-04T06:23:17.362Z,7.65
2018-08-04T06:25:19.616Z,4.67
2018-08-04T06:27:21.842Z,5.92
2018-08-04T06:29:24.076Z,7.08
2018-08-04T06:31:26.290Z,4.67
2018-08-04T06:33:28.538Z,4.60
2018-08-04T06:35:30.788Z,5.00
2018-08-04T06:37:32.985Z,5.15
2018-08-04T06:39:35.246Z,5.05
2018-08-04T06:41:37.469Z,6.25
2018-08-04T06:43:39.728Z,4.95
2018-08-04T06:45:41.939Z,5.72
2018-08-04T06:47:44.188Z,5.35
2018-08-04T06:49:46.451Z,4.60
2018-08-04T06:51:48.659Z,4.83
2018-08-04T06:53:50.884Z,4.42
2018-08-04T06:55:53.139Z,81.28
2018-08-04T06:57:55.362Z,40.70
2018-08-04T06:59:57.583Z,25.68
2018-08-04T07:01:59.838Z,15.28
2018-08-04T07:04:02.084Z,10.28
2018-08-04T07:06:04.327Z,7.80
2018-08-04T07:08:06.544Z,7.30
2018-08-04T07:10:08.789Z,6.85
2018-08-04T07:12:11.061Z,15.43
2018-08-04T07:14:13.316Z,19.45
2018-08-04T07:16:15.575Z,27.80
2018-08-04T07:18:17.808Z,39.10
2018-08-04T07:20:20.066Z,24.50
2018-08-04T07:22:22.294Z,13.83
2018-08-04T07:24:24.550Z,8.23
2018-08-04T07:26:26.772Z,5.95
2018-08-04T07:28:29.016Z,5.72
2018-08-04T07:30:31.252Z,4.58
2018-08-04T07:32:33.546Z,5.25
2018-08-04T07:34:35.744Z,4.92
2018-08-04T07:36:37.959Z,4.05
2018-08-04T07:38:40.197Z,5.10
2018-08-04T07:40:42.445Z,4.53
2018-08-04T07:42:44.652Z,4.87
2018-08-04T07:44:46.947Z,3.83
2018-08-04T07:46:49.165Z,4.78
2018-08-04T07:48:51.413Z,204.75
2018-08-04T07:50:53.681Z,90.50
2018-08-04T07:52:55.913Z,57.55
2018-08-04T07:54:58.136Z,43.17
2018-08-04T07:57:00.373Z,21.30
2018-08-04T07:59:02.659Z,11.18
2018-08-04T08:01:04.908Z,8.48
2018-08-04T08:03:07.135Z,8.68
2018-08-04T08:05:09.390Z,5.37
2018-08-04T08:07:11.593Z,5.35
2018-08-04T08:09:13.843Z,3.95
2018-08-04T08:11:16.108Z,7.03
2018-08-04T08:13:18.324Z,5.08
2018-08-04T08:15:20.539Z,8.20
2018-08-04T08:17:22.762Z,6.12
2018-08-04T08:19:25.068Z,4.65
2018-08-04T08:21:27.249Z,3.85
2018-08-04T08:23:29.531Z,6.58
2018-08-04T08:25:31.749Z,10.25
2018-08-04T08:27:33.976Z,16.35
2018-08-04T08:29:36.201Z,13.15
2018-08-04T08:31:38.520Z,14.73
2018-08-04T08:33:40.697Z,9.28
2018-08-04T08:35:43.462Z,8.18
2018-08-04T08:37:45.727Z,5.72
2018-08-04T08:39:47.944Z,5.72
2018-08-04T08:41:50.189Z,5.70
2018-08-04T08:43:52.433Z,6.25
2018-08-04T08:45:54.715Z,5.47
2018-08-04T08:47:56.910Z,4.05
2018-08-04T08:49:59.148Z,4.10
2018-08-04T08:52:01.407Z,3.95
2018-08-04T08:54:03.909Z,5.05
2018-08-04T08:56:05.928Z,4.97
2018-08-04T08:58:08.168Z,4.28
2018-08-04T09:00:10.460Z,5.25
2018-08-04T09:02:12.685Z,5.10
2018-08-04T09:04:14.919Z,4.70
2018-08-04T09:06:17.785Z,3.05
2018-08-04T09:08:20.041Z,3.58
2018-08-04T09:10:22.291Z,4.53
2018-08-04T09:12:24.562Z,4.78
2018-08-04T09:14:26.904Z,4.28
2018-08-04T09:16:29.105Z,8.48
2018-08-04T09:18:31.363Z,3.60
2018-08-04T09:20:33.582Z,3.83
2018-08-04T09:22:35.858Z,3.20
2018-08-04T09:24:38.855Z,3.67
2018-08-04T09:26:41.077Z,5.15
2018-08-04T09:28:43.361Z,3.60
2018-08-04T09:30:45.618Z,7.05
2018-08-04T09:32:47.890Z,4.25
2018-08-04T09:34:50.166Z,3.67
2018-08-04T09:36:52.378Z,3.87
2018-08-04T09:38:54.618Z,3.77
2018-08-04T09:40:56.839Z,3.83
2018-08-04T09:42:59.933Z,15.78
2018-08-04T09:45:02.191Z,31.77
2018-08-04T09:47:04.440Z,60.05
2018-08-04T09:49:06.788Z,32.65
2018-08-04T09:51:09.098Z,28.00
2018-08-04T09:53:11.331Z,26.27
2018-08-04T09:55:13.560Z,11.08
2018-08-04T09:57:15.824Z,14.90
2018-08-04T09:59:18.045Z,13.78
2018-08-04T10:01:20.296Z,10.68
2018-08-04T10:03:22.502Z,9.15
2018-08-04T10:05:24.741Z,6.17
2018-08-04T10:07:26.949Z,5.37
2018-08-04T10:09:29.214Z,4.50
2018-08-04T10:11:31.426Z,6.35
2018-08-04T10:13:33.656Z,15.13
2018-08-04T10:15:35.898Z,463.80
2018-08-04T10:17:38.154Z,651.17
2018-08-04T10:19:40.396Z,343.02
2018-08-04T10:21:42.639Z,264.52
2018-08-04T10:23:44.865Z,122.00
2018-08-04T10:25:47.127Z,66.33
2018-08-04T10:27:49.377Z,133.90
2018-08-04T10:29:51.617Z,218.22
2018-08-04T10:31:53.973Z,116.08
2018-08-04T10:33:56.128Z,70.92
2018-08-04T10:35:58.348Z,173.40
2018-08-04T10:38:00.620Z,149.30
2018-08-04T10:40:02.841Z,177.20
2018-08-04T10:42:05.066Z,132.43
2018-08-04T10:44:07.398Z,207.62
2018-08-04T10:46:09.568Z,134.60
2018-08-04T10:48:11.831Z,98.27
2018-08-04T10:50:14.038Z,122.22
2018-08-04T10:52:16.284Z,226.35
2018-08-04T10:54:18.540Z,151.57
2018-08-04T10:56:20.778Z,160.10
2018-08-04T10:58:23.001Z,111.83
2018-08-04T11:00:25.275Z,72.92
2018-08-04T11:02:27.534Z,56.90
2018-08-04T11:04:29.746Z,38.60
2018-08-04T11:06:31.970Z,40.78
2018-08-04T11:08:34.230Z,38.20
2018-08-04T11:10:36.456Z,30.17
2018-08-04T11:12:38.720Z,34.05
2018-08-04T11:14:40.946Z,26.30
2018-08-04T11:16:43.241Z,25.70
2018-08-04T11:18:45.474Z,20.82
2018-08-04T11:20:47.694Z,15.58
2018-08-04T11:22:49.921Z,15.78
2018-08-04T11:24:52.165Z,12.45
2018-08-04T11:26:54.423Z,13.93
2018-08-04T11:28:56.669Z,13.75
2018-08-04T11:30:58.997Z,12.53
2018-08-04T11:33:01.158Z,10.38
2018-08-04T11:35:03.406Z,10.25
2018-08-04T11:37:05.617Z,12.78
2018-08-04T11:39:07.844Z,8.35
2018-08-04T11:41:10.177Z,8.60
2018-08-04T11:43:12.433Z,7.15
2018-08-04T11:45:14.665Z,6.15
2018-08-04T11:47:16.864Z,6.25
2018-08-04T11:49:19.137Z,6.78
2018-08-04T11:51:21.392Z,6.35
2018-08-04T11:53:23.620Z,7.05
2018-08-04T11:55:25.873Z,4.47
2018-08-04T11:57:28.091Z,4.25
2018-08-04T11:59:30.342Z,3.80
2018-08-04T12:01:32.609Z,4.00
2018-08-04T12:03:34.848Z,5.15
2018-08-04T12:05:37.064Z,4.70
2018-08-04T12:07:39.307Z,3.25
2018-08-04T12:09:41.561Z,6.35
2018-08-04T12:11:43.797Z,4.03
2018-08-04T12:13:46.013Z,5.40
2018-08-04T12:15:48.222Z,3.90
2018-08-04T12:17:50.484Z,4.00
2018-08-04T12:19:52.702Z,3.40
2018-08-04T12:21:55.060Z,3.62
2018-08-04T12:23:57.308Z,4.72
2018-08-04T12:25:59.539Z,3.85
2018-08-04T12:28:01.779Z,3.08
2018-08-04T12:30:03.996Z,3.00
2018-08-04T12:32:06.213Z,3.25
2018-08-04T12:34:08.461Z,3.40
2018-08-04T12:36:10.682Z,3.02
2018-08-04T12:38:12.921Z,3.10
2018-08-04T12:40:15.189Z,2.80
2018-08-04T12:42:17.408Z,3.17
2018-08-04T12:44:19.642Z,2.27
2018-08-04T12:46:21.860Z,2.80
2018-08-04T12:48:24.120Z,2.70
2018-08-04T12:50:26.335Z,3.02
2018-08-04T12:52:28.567Z,2.25
2018-08-04T12:54:30.882Z,4.40
2018-08-04T12:56:33.041Z,3.85
2018-08-04T12:58:35.286Z,7.00
2018-08-04T13:00:37.490Z,3.10
2018-08-04T13:02:39.744Z,3.50
2018-08-04T13:04:41.944Z,171.95
2018-08-04T13:06:44.204Z,144.62
2018-08-04T13:08:46.476Z,50.98
2018-08-04T13:10:48.692Z,57.70
2018-08-04T13:12:50.896Z,57.83
2018-08-04T13:14:53.174Z,41.18
2018-08-04T13:16:55.426Z,33.00
2018-08-04T13:18:57.678Z,24.57
2018-08-04T13:21:00.190Z,17.42
2018-08-04T13:23:02.486Z,17.60
2018-08-04T13:25:04.700Z,20.10
2018-08-04T13:27:06.961Z,21.80
2018-08-04T13:29:09.196Z,375.95
2018-08-04T13:31:11.441Z,359.65
2018-08-04T13:33:13.694Z,198.13
2018-08-04T13:35:15.938Z,127.97
2018-08-04T13:37:18.191Z,49.93
2018-08-04T13:39:20.404Z,39.95
2018-08-04T13:41:22.640Z,31.00
2018-08-04T13:43:24.862Z,16.93
2018-08-04T13:45:27.109Z,24.47
2018-08-04T13:47:29.342Z,14.55
2018-08-04T13:49:31.604Z,11.08
2018-08-04T13:51:33.826Z,10.10
2018-08-04T13:53:36.067Z,8.30
2018-08-04T13:55:38.359Z,6.85
2018-08-04T13:57:40.556Z,4.90
2018-08-04T13:59:42.874Z,9.53
2018-08-04T14:01:45.040Z,233.20
2018-08-04T14:03:47.304Z,207.98
2018-08-04T14:05:49.588Z,160.30
2018-08-04T14:07:51.840Z,123.58
2018-08-04T14:09:54.071Z,88.85
2018-08-04T14:11:56.359Z,69.20
2018-08-04T14:13:58.584Z,28.98
2018-08-04T14:16:00.838Z,372.25
2018-08-04T14:18:03.059Z,241.70
2018-08-04T14:20:05.323Z,182.25
2018-08-04T14:22:07.586Z,110.03
2018-08-04T14:24:09.852Z,106.90
2018-08-04T14:26:12.132Z,24.55
2018-08-04T14:28:14.381Z,42.17
2018-08-04T14:30:16.584Z,25.92
2018-08-04T14:32:18.843Z,11.22
2018-08-04T14:34:21.099Z,11.25
2018-08-04T14:36:23.324Z,34.58
2018-08-04T14:38:25.563Z,160.82
2018-08-04T14:40:27.799Z,162.47
2018-08-04T14:42:30.064Z,144.90
2018-08-04T14:44:32.320Z,131.40
2018-08-04T14:46:34.557Z,227.18
2018-08-04T14:48:36.833Z,193.17
2018-08-04T14:50:39.072Z,114.80
2018-08-04T14:52:41.332Z,79.67
2018-08-04T14:54:43.558Z,59.67
2018-08-04T14:56:45.803Z,52.03
2018-08-04T14:58:48.038Z,156.47
2018-08-04T15:00:50.298Z,142.03
2018-08-04T15:02:52.552Z,153.25
2018-08-04T15:04:54.843Z,96.67
2018-08-04T15:06:57.069Z,47.83
2018-08-04T15:08:59.271Z,51.35
2018-08-04T15:11:01.506Z,31.75
2018-08-04T15:13:03.742Z,30.62
2018-08-04T15:15:06.014Z,19.98
2018-08-04T15:17:08.238Z,12.55
2018-08-04T15:19:10.494Z,11.48
2018-08-04T15:21:12.727Z,10.90
2018-08-04T15:23:14.999Z,14.93
2018-08-04T15:25:17.207Z,7.08
2018-08-04T15:27:19.437Z,21.20
2018-08-04T15:29:21.687Z,337.72
2018-08-04T15:31:23.938Z,210.55
2018-08-04T15:33:26.182Z,129.65
2018-08-04T15:35:28.435Z,358.45
2018-08-04T15:37:30.678Z,195.38
2018-08-04T15:39:32.921Z,114.40
2018-08-04T15:41:35.215Z,105.90
2018-08-04T15:43:37.454Z,76.82
2018-08-04T15:45:39.713Z,40.35
2018-08-04T15:47:41.969Z,21.35
2018-08-04T15:49:44.193Z,348.65
2018-08-04T15:51:46.501Z,188.03
2018-08-04T15:53:48.789Z,199.40
2018-08-04T15:55:51.079Z,240.15
2018-08-04T15:57:53.313Z,165.85
2018-08-04T15:59:55.553Z,76.70
2018-08-04T16:01:57.816Z,56.37
2018-08-04T16:04:00.057Z,41.63
2018-08-04T16:06:02.299Z,55.73
2018-08-04T16:08:04.547Z,343.90
2018-08-04T16:10:06.763Z,248.55
2018-08-04T16:12:09.026Z,191.35
2018-08-04T16:14:11.268Z,358.32
2018-08-04T16:16:13.527Z,233.10
2018-08-04T16:18:15.751Z,110.55
2018-08-04T16:20:17.998Z,75.67
2018-08-04T16:22:20.218Z,67.35
2018-08-04T16:24:22.498Z,46.68
2018-08-04T16:26:24.726Z,29.10
2018-08-04T16:28:26.950Z,19.92
2018-08-04T16:30:29.187Z,18.00
2018-08-04T16:32:31.408Z,14.10
2018-08-04T16:34:33.636Z,11.00
2018-08-04T16:36:35.870Z,11.97
2018-08-04T16:38:38.130Z,9.60
2018-08-04T16:40:40.369Z,7.95
2018-08-04T16:42:42.633Z,31.12
2018-08-04T16:44:44.844Z,579.85
2018-08-04T16:46:47.079Z,220.25
2018-08-04T16:48:49.360Z,434.22
2018-08-04T16:50:51.587Z,217.10
2018-08-04T16:52:53.838Z,94.70
2018-08-04T16:54:56.114Z,102.22
2018-08-04T16:56:58.393Z,166.22
2018-08-04T16:59:00.586Z,278.00
2018-08-04T17:01:02.836Z,190.55
2018-08-04T17:03:05.124Z,238.03
2018-08-04T17:05:07.403Z,130.27
2018-08-04T17:07:09.675Z,108.03
2018-08-04T17:09:11.930Z,237.40
2018-08-04T17:11:14.188Z,123.92
2018-08-04T17:13:16.423Z,163.62
2018-08-04T17:15:18.681Z,101.10
2018-08-04T17:17:20.939Z,102.85
2018-08-04T17:19:23.174Z,81.67
2018-08-04T17:21:25.416Z,67.67
2018-08-04T17:23:27.651Z,56.77
2018-08-04T17:25:29.893Z,121.53
2018-08-04T17:27:32.136Z,94.77
2018-08-04T17:29:34.394Z,95.15
2018-08-04T17:31:36.631Z,101.50
2018-08-04T17:33:38.847Z,96.45
2018-08-04T17:35:41.120Z,57.60
2018-08-04T17:37:43.438Z,66.60
2018-08-04T17:39:45.602Z,98.15
2018-08-04T17:41:47.871Z,127.58
2018-08-04T17:43:50.102Z,88.65
2018-08-04T17:45:52.326Z,59.30
2018-08-04T17:47:54.578Z,32.15
2018-08-04T17:49:56.822Z,26.82
2018-08-04T17:51:59.031Z,14.75
2018-08-04T17:54:01.284Z,11.83
2018-08-04T17:56:03.503Z,12.15
2018-08-04T17:58:05.739Z,10.40
2018-08-04T18:00:07.973Z,9.20
2018-08-04T18:02:10.220Z,9.03
2018-08-04T18:04:12.476Z,6.92
2018-08-04T18:06:14.701Z,4.67
2018-08-04T18:08:16.931Z,5.45
2018-08-04T18:10:19.161Z,6.60
2018-08-04T18:12:21.371Z,6.55
2018-08-04T18:14:23.575Z,5.92
2018-08-04T18:16:25.813Z,6.78
2018-08-04T18:18:28.055Z,73.40
2018-08-04T18:20:30.289Z,348.35
2018-08-04T18:22:32.508Z,188.62
2018-08-04T18:24:34.761Z,69.32
2018-08-04T18:26:37.001Z,45.08
2018-08-04T18:28:39.237Z,27.60
2018-08-04T18:30:41.576Z,54.25
2018-08-04T18:32:43.792Z,107.63
2018-08-04T18:34:46.020Z,44.03
2018-08-04T18:36:48.262Z,26.50
2018-08-04T18:38:50.512Z,14.98
2018-08-04T18:40:52.733Z,11.20
2018-08-04T18:42:54.948Z,11.20
2018-08-04T18:44:57.178Z,7.83
2018-08-04T18:46:59.394Z,8.05
2018-08-04T18:49:01.613Z,7.25
2018-08-04T18:51:03.851Z,14.73
2018-08-04T18:53:06.168Z,71.30
2018-08-04T18:55:08.364Z,86.82
2018-08-04T18:57:14.049Z,93.33
2018-08-04T18:59:16.292Z,55.95
2018-08-04T19:01:18.522Z,45.38
2018-08-04T19:03:20.769Z,21.20
2018-08-04T19:05:23.007Z,33.88
2018-08-04T19:07:25.357Z,55.25
2018-08-04T19:09:27.605Z,48.13
2018-08-04T19:11:29.855Z,29.75
2018-08-04T19:13:32.100Z,26.02
2018-08-04T19:15:34.345Z,11.90
2018-08-04T19:17:36.600Z,7.25
2018-08-04T19:19:38.846Z,31.23
2018-08-04T19:21:41.038Z,118.72
2018-08-04T19:23:43.313Z,94.67
2018-08-04T19:25:45.551Z,87.67
2018-08-04T19:27:47.865Z,19.10
2018-08-04T19:29:50.062Z,21.60
2018-08-04T19:31:52.325Z,11.70
2018-08-04T19:33:54.582Z,8.40
2018-08-04T19:35:56.805Z,57.08
2018-08-04T19:37:59.010Z,105.67
2018-08-04T19:40:01.279Z,47.65
2018-08-04T19:42:03.507Z,29.98
2018-08-04T19:44:06.595Z,18.95
2018-08-04T19:46:08.822Z,10.63
2018-08-04T19:48:11.111Z,7.08
2018-08-04T19:50:13.316Z,6.55
2018-08-04T19:52:15.535Z,4.10
2018-08-04T19:54:17.798Z,4.28
2018-08-04T19:56:20.006Z,2.30
2018-08-04T19:58:22.257Z,2.08
2018-08-04T20:00:24.531Z,2.05
2018-08-04T20:02:26.722Z,2.35
2018-08-04T20:04:28.939Z,3.15
2018-08-04T20:06:31.160Z,2.62
2018-08-04T20:08:33.449Z,45.60
2018-08-04T20:10:35.651Z,85.55
2018-08-04T20:12:37.893Z,180.27
2018-08-04T20:14:40.141Z,156.25
2018-08-04T20:16:42.363Z,189.60
2018-08-04T20:18:44.629Z,155.48
2018-08-04T20:20:46.912Z,126.62
2018-08-04T20:22:49.171Z,126.45
2018-08-04T20:24:51.397Z,97.08
2018-08-04T20:26:53.667Z,150.27
2018-08-04T20:28:55.909Z,201.90
2018-08-04T20:30:58.159Z,192.60
2018-08-04T20:33:00.391Z,191.20
2018-08-04T20:35:02.654Z,151.47
2018-08-04T20:37:04.896Z,142.32
2018-08-04T20:39:07.145Z,148.28
2018-08-04T20:41:09.387Z,105.80
2018-08-04T20:43:11.646Z,100.82
2018-08-04T20:45:13.903Z,79.10
2018-08-04T20:47:16.106Z,66.87
2018-08-04T20:49:18.346Z,63.83
2018-08-04T20:51:20.609Z,58.78
2018-08-04T20:53:22.875Z,44.75
2018-08-04T20:55:25.101Z,32.03
2018-08-04T20:57:27.330Z,44.03
2018-08-04T20:59:29.573Z,29.42
2018-08-04T21:01:31.808Z,34.30
2018-08-04T21:03:34.043Z,68.52
2018-08-04T21:05:36.280Z,101.87
2018-08-04T21:07:38.525Z,89.60
2018-08-04T21:09:40.760Z,76.50
2018-08-04T21:11:43.098Z,80.55
2018-08-04T21:13:45.257Z,69.17
2018-08-04T21:15:47.522Z,52.50
2018-08-04T21:17:49.771Z,43.92
2018-08-04T21:19:52.003Z,40.03
2018-08-04T21:21:54.220Z,37.10
2018-08-04T21:23:56.474Z,31.57
2018-08-04T21:25:58.728Z,46.40
2018-08-04T21:28:00.966Z,82.12
2018-08-04T21:30:03.180Z,76.02
2018-08-04T21:32:05.454Z,74.27
2018-08-04T21:34:07.676Z,66.95
2018-08-04T21:36:09.901Z,58.95
2018-08-04T21:38:12.166Z,53.40
2018-08-04T21:40:14.395Z,43.17
2018-08-04T21:42:16.636Z,39.50
2018-08-04T21:44:18.926Z,28.98
2018-08-04T21:46:21.137Z,30.88
2018-08-04T21:48:23.340Z,29.12
2018-08-04T21:50:25.620Z,91.25
2018-08-04T21:52:27.976Z,126.30
2018-08-04T21:54:30.085Z,98.03
2018-08-04T21:56:32.336Z,90.00
2018-08-04T21:58:34.573Z,82.72
2018-08-04T22:00:36.895Z,77.97
2018-08-04T22:02:39.080Z,53.20
2018-08-04T22:04:41.315Z,44.08
2018-08-04T22:06:43.552Z,38.85
2018-08-04T22:08:45.788Z,35.63
2018-08-04T22:10:48.069Z,34.27
2018-08-04T22:12:50.314Z,72.65
2018-08-04T22:14:52.503Z,135.52
2018-08-04T22:16:54.763Z,130.65
2018-08-04T22:18:57.022Z,115.60
2018-08-04T22:20:59.242Z,94.05
2018-08-04T22:23:01.476Z,92.67
2018-08-04T22:25:03.712Z,114.08
2018-08-04T22:27:05.957Z,159.75
2018-08-04T22:29:08.217Z,130.60
2018-08-04T22:31:10.452Z,130.95
2018-08-04T22:33:12.704Z,116.75
2018-08-04T22:35:14.941Z,112.83
2018-08-04T22:37:17.165Z,92.05
2018-08-04T22:39:19.416Z,78.80
2018-08-04T22:41:21.721Z,111.37
2018-08-04T22:43:23.899Z,182.60
2018-08-04T22:45:26.141Z,146.07
2018-08-04T22:47:28.374Z,189.95
2018-08-04T22:49:30.637Z,146.57
2018-08-04T22:51:32.877Z,123.00
2018-08-04T22:53:35.145Z,113.88
2018-08-04T22:55:37.365Z,96.72
2018-08-04T22:57:39.595Z,92.62
2018-08-04T22:59:41.831Z,75.15
2018-08-04T23:01:44.076Z,66.92
2018-08-04T23:05:48.547Z,59.20
2018-08-04T23:07:50.760Z,53.95
2018-08-04T23:09:53.004Z,50.83
2018-08-04T23:11:55.215Z,46.15
2018-08-04T23:13:57.475Z,43.90
2018-08-04T23:15:59.710Z,35.80
2018-08-04T23:18:01.941Z,34.67
2018-08-04T23:20:04.175Z,30.52
2018-08-04T23:22:06.431Z,25.65
2018-08-04T23:24:08.688Z,24.63
2018-08-04T23:26:10.913Z,20.92
2018-08-04T23:30:21.763Z,17.25
2018-08-04T23:32:24.000Z,13.78
2018-08-04T23:34:26.246Z,12.68
2018-08-04T23:36:28.480Z,11.53
2018-08-04T23:38:30.736Z,11.97
2018-08-04T23:40:32.970Z,9.75
2018-08-04T23:42:35.205Z,8.70
2018-08-04T23:44:37.423Z,7.40
2018-08-04T23:46:39.672Z,7.78
2018-08-04T23:48:41.889Z,7.83
2018-08-04T23:50:44.134Z,7.20
2018-08-04T23:52:46.345Z,6.08
2018-08-04T23:54:48.593Z,5.87
2018-08-04T23:56:50.818Z,5.25
2018-08-04T23:58:53.054Z,4.80
